Remmel, Arkansas
Current Conditions -  °F | °C
As of 2:22 AM on Monday 24 Nov 2014 (Local Time) from KM19 Reporting Station
Overcast Overcast  
Wind Chill: 52°   Ceiling: 3000
Heat Index: 52°   Visibility: 10mi
Dew Point: 46°   Wind: 29mph
Humidity: 82%   Direction: 280°W
Pressure: 29.49"   Gusts: 36mph
Location:  35.5678°N, 91.2073°W
Report Text: KM19 240822Z AUTO 28025G31KT 10SM SCT024 OVC030 11/08 A2949 RMK AO2 PK WND 27031/0817 PRESRR
Loading
Personal Weather Stations






























Interactive Weather Map New forecast layout! Learn more

10-Day Weather Forecast

Advertisements
Track Severe Weather on mobile